Time;durP1;ratioP1;P1;durP2;ratioP2;P2;SDS_P1;SDS_P2;PMS_P1;PMS_P2;Temp;Humidity;BMP_temperature;BMP_pressure;BME280_temperature;BME280_humidity;BME280_pressure;Samples;Min_cycle;Max_cycle;Signal;HPM_P1;HPM_P2
2022/06/26 00:01:46;;;;;;;6.30;4.40;;;;;;;18.51;59.89;96518.02;107554;1271;34899;-77
2022/06/26 00:04:18;;;;;;;7.10;4.10;;;;;;;18.42;60.26;96527.06;107463;1270;53382;-78
2022/06/26 00:06:49;;;;;;;5.10;3.80;;;;;;;18.35;60.58;96526.77;107325;1270;86200;-77
2022/06/26 00:09:20;;;;;;;5.70;3.80;;;;;;;18.31;60.90;96532.92;107475;1270;47535;-77
2022/06/26 00:11:51;;;;;;;7.00;3.90;;;;;;;18.37;60.91;96535.63;107598;1271;33271;-77
2022/06/26 00:14:22;;;;;;;6.40;4.00;;;;;;;18.39;60.90;96538.26;107397;1270;65012;-77
2022/06/26 00:16:53;;;;;;;5.80;4.30;;;;;;;18.22;61.14;96539.84;107425;1270;68914;-77
2022/06/26 00:19:24;;;;;;;5.30;4.30;;;;;;;18.05;61.53;96540.17;107546;1270;41549;-77
2022/06/26 00:21:56;;;;;;;4.90;4.00;;;;;;;18.07;61.77;96545.55;107619;1270;33011;-77
2022/06/26 00:24:28;;;;;;;4.80;4.10;;;;;;;18.13;61.81;96547.96;107510;1270;52712;-77
2022/06/26 00:26:59;;;;;;;4.80;4.10;;;;;;;18.23;61.78;96549.40;107602;1270;54146;-77
2022/06/26 00:29:31;;;;;;;4.80;3.90;;;;;;;18.24;61.71;96552.42;107674;1270;35206;-77
2022/06/26 00:32:03;;;;;;;5.20;4.20;;;;;;;18.29;61.77;96554.20;107602;1271;47997;-77
2022/06/26 00:34:34;;;;;;;7.00;4.20;;;;;;;18.32;61.89;96555.02;107647;1269;34393;-77
2022/06/26 00:37:05;;;;;;;6.20;4.10;;;;;;;18.32;61.90;96551.20;107665;1270;39647;-77
2022/06/26 00:39:38;;;;;;;6.10;4.20;;;;;;;18.25;62.00;96553.98;107491;1271;34111;-77
2022/06/26 00:42:09;;;;;;;4.60;3.90;;;;;;;18.14;62.21;96555.44;107608;1270;37357;-77
2022/06/26 00:44:40;;;;;;;5.30;4.30;;;;;;;18.07;62.49;96553.73;107522;1270;103932;-77
2022/06/26 00:47:11;;;;;;;7.20;4.60;;;;;;;18.00;62.89;96549.11;107585;1271;60999;-76
2022/06/26 00:49:44;;;;;;;5.60;4.60;;;;;;;17.95;63.13;96549.84;107605;1270;39801;-76
2022/06/26 00:52:16;;;;;;;5.40;4.30;;;;;;;17.94;63.39;96549.50;107613;1271;39566;-77
2022/06/26 00:54:49;;;;;;;6.60;4.20;;;;;;;18.00;63.48;96548.12;107524;1270;51790;-77
2022/06/26 00:57:21;;;;;;;6.80;4.10;;;;;;;18.05;63.46;96551.06;107428;1270;60388;-77
2022/06/26 00:59:52;;;;;;;6.30;4.20;;;;;;;18.08;63.45;96557.13;107469;1270;62520;-77
2022/06/26 01:02:24;;;;;;;4.80;4.20;;;;;;;18.10;63.47;96559.88;107361;1271;48077;-77
2022/06/26 01:04:55;;;;;;;5.10;4.40;;;;;;;18.11;63.37;96561.55;107493;1270;39383;-77
2022/06/26 01:07:27;;;;;;;5.30;3.80;;;;;;;18.14;63.37;96558.94;107575;1269;33644;-77
2022/06/26 01:09:58;;;;;;;5.50;4.30;;;;;;;18.15;63.19;96556.37;107577;1270;33991;-77
2022/06/26 01:12:29;;;;;;;6.20;4.10;;;;;;;18.15;63.08;96558.61;107468;1270;49979;-77
2022/06/26 01:15:01;;;;;;;5.90;4.40;;;;;;;18.19;62.97;96556.79;107370;1270;85343;-77
2022/06/26 01:17:33;;;;;;;6.40;4.30;;;;;;;18.24;62.77;96556.42;107400;1270;51298;-77
2022/06/26 01:20:05;;;;;;;5.70;4.40;;;;;;;18.25;62.67;96559.60;107458;1271;47039;-77
2022/06/26 01:22:36;;;;;;;5.30;4.10;;;;;;;18.24;62.82;96556.65;107536;1270;37047;-77
2022/06/26 01:25:08;;;;;;;5.00;4.40;;;;;;;18.23;62.93;96557.77;107556;1270;75307;-77
2022/06/26 01:27:44;;;;;;;5.90;4.50;;;;;;;18.22;62.92;96554.97;107706;1269;38574;-77
2022/06/26 01:30:16;;;;;;;5.50;4.70;;;;;;;18.23;62.89;96559.15;107348;1271;59600;-77
2022/06/26 01:32:47;;;;;;;5.60;4.40;;;;;;;18.19;63.01;96555.72;107411;1270;39627;-77
2022/06/26 01:35:18;;;;;;;5.60;4.20;;;;;;;18.17;62.97;96557.60;107497;1270;58676;-77
2022/06/26 01:37:49;;;;;;;4.60;4.10;;;;;;;18.15;62.98;96559.30;107547;1270;37445;-76
2022/06/26 01:40:20;;;;;;;4.60;3.90;;;;;;;18.18;63.31;96563.27;107344;1271;57445;-77
2022/06/26 01:42:51;;;;;;;4.40;4.00;;;;;;;18.18;63.10;96559.83;107460;1270;44186;-77
2022/06/26 01:45:23;;;;;;;5.30;4.20;;;;;;;18.20;63.14;96559.41;107425;1270;50475;-77
2022/06/26 01:47:56;;;;;;;6.50;4.50;;;;;;;18.22;63.12;96559.80;107363;1270;84880;-77
2022/06/26 01:50:27;;;;;;;6.20;4.20;;;;;;;18.22;63.05;96559.35;107517;1270;41698;-76
2022/06/26 01:52:58;;;;;;;6.30;4.20;;;;;;;18.22;63.07;96557.42;107490;1269;70935;-76
2022/06/26 01:55:29;;;;;;;4.30;3.80;;;;;;;18.20;63.08;96556.81;107465;1270;42140;-76
2022/06/26 01:58:01;;;;;;;8.70;4.90;;;;;;;18.16;63.20;96557.13;107473;1270;49563;-77
2022/06/26 02:00:33;;;;;;;4.30;3.80;;;;;;;18.13;63.24;96558.60;107374;1270;65728;-77
2022/06/26 02:03:05;;;;;;;4.60;3.90;;;;;;;18.11;63.42;96557.31;107448;1271;54133;-76
2022/06/26 02:05:37;;;;;;;7.20;4.30;;;;;;;18.13;63.48;96555.69;107406;1270;50158;-77
2022/06/26 02:08:09;;;;;;;4.40;3.90;;;;;;;18.14;63.43;96557.52;107410;1270;63448;-76
2022/06/26 02:13:37;;;;;;;7.70;4.10;;;;;;;18.10;63.28;96560.64;107417;1270;46710;-77
2022/06/26 02:16:12;;;;;;;5.20;4.30;;;;;;;18.04;63.34;96558.94;107516;1270;43013;-77
2022/06/26 02:18:58;;;;;;;5.80;4.40;;;;;;;18.06;63.38;96559.52;107694;1271;31842;-77
2022/06/26 02:21:30;;;;;;;6.90;5.00;;;;;;;18.03;63.41;96563.99;107500;1271;54157;-76
2022/06/26 02:24:01;;;;;;;7.50;4.80;;;;;;;17.98;63.45;96566.41;107559;1271;35925;-76
2022/06/26 02:26:33;;;;;;;5.40;3.70;;;;;;;17.98;63.46;96568.93;107558;1271;36160;-76
2022/06/26 02:29:04;;;;;;;6.40;4.00;;;;;;;18.02;63.44;96572.48;107527;1270;39323;-77
2022/06/26 02:31:35;;;;;;;6.80;4.20;;;;;;;18.02;63.57;96578.77;107625;1269;36786;-77
2022/06/26 02:34:06;;;;;;;5.30;4.50;;;;;;;18.02;63.65;96582.73;107597;1269;44309;-77
2022/06/26 02:36:37;;;;;;;4.90;4.00;;;;;;;18.02;63.63;96584.67;107578;1269;32834;-76
2022/06/26 02:39:08;;;;;;;6.30;4.50;;;;;;;18.04;63.71;96587.36;107564;1271;35331;-77
2022/06/26 02:41:39;;;;;;;6.70;4.90;;;;;;;18.07;63.63;96586.02;107647;1271;34596;-77
2022/06/26 02:44:10;;;;;;;6.20;4.50;;;;;;;18.08;63.61;96590.89;107606;1271;38937;-77
2022/06/26 02:46:41;;;;;;;8.10;4.60;;;;;;;18.08;63.74;96591.47;107572;1271;64104;-77
2022/06/26 02:49:13;;;;;;;5.20;4.20;;;;;;;18.05;63.76;96596.42;107671;1270;33203;-76
2022/06/26 02:51:44;;;;;;;5.60;4.50;;;;;;;18.02;64.14;96595.61;107455;1270;90862;-76
2022/06/26 02:54:15;;;;;;;6.20;4.50;;;;;;;17.95;64.17;96598.59;107556;1270;37280;-76
2022/06/26 02:56:46;;;;;;;6.90;4.20;;;;;;;17.81;64.88;96599.42;107499;1271;47493;-76
2022/06/26 02:59:17;;;;;;;6.40;4.40;;;;;;;17.71;65.36;96599.95;107381;1270;65239;-77
2022/06/26 03:01:48;;;;;;;5.80;4.90;;;;;;;17.63;66.17;96599.86;107528;1270;43230;-77
2022/06/26 03:04:19;;;;;;;5.50;4.40;;;;;;;17.57;66.60;96602.11;107501;1270;36199;-76
2022/06/26 03:06:50;;;;;;;6.30;4.20;;;;;;;17.60;66.98;96604.41;107590;1270;33312;-76
2022/06/26 03:09:21;;;;;;;5.80;4.90;;;;;;;17.65;66.61;96605.84;107586;1271;43926;-76
2022/06/26 03:11:54;;;;;;;5.40;4.60;;;;;;;17.70;66.32;96606.34;107497;1270;60553;-76
2022/06/26 03:14:25;;;;;;;6.20;4.80;;;;;;;17.78;66.10;96607.44;107468;1270;64877;-77
2022/06/26 03:16:57;;;;;;;6.80;4.80;;;;;;;17.83;65.95;96608.60;107510;1271;56337;-77
2022/06/26 03:19:29;;;;;;;5.30;4.70;;;;;;;17.86;65.90;96606.24;107449;1271;74528;-77
2022/06/26 03:22:00;;;;;;;7.10;5.40;;;;;;;17.85;65.79;96609.06;107506;1270;50035;-76
2022/06/26 03:24:31;;;;;;;5.30;4.80;;;;;;;17.86;65.95;96610.16;107394;1271;57474;-76
2022/06/26 03:27:03;;;;;;;5.80;4.40;;;;;;;17.93;66.05;96611.83;107404;1271;44533;-76
2022/06/26 03:29:34;;;;;;;5.30;4.70;;;;;;;17.92;66.16;96617.92;107439;1270;54047;-76
2022/06/26 03:32:07;;;;;;;7.50;5.00;;;;;;;17.88;66.38;96620.14;107467;1270;71433;-76
2022/06/26 03:34:38;;;;;;;6.80;5.00;;;;;;;17.91;66.67;96624.16;107498;1270;57707;-76
2022/06/26 03:37:11;;;;;;;8.20;5.40;;;;;;;17.84;67.50;96623.86;107444;1270;76924;-76
2022/06/26 03:39:43;;;;;;;5.50;4.30;;;;;;;17.73;68.29;96622.19;107492;1270;52142;-76
2022/06/26 03:42:14;;;;;;;7.00;4.30;;;;;;;17.67;68.88;96623.20;107527;1271;72805;-76
2022/06/26 03:44:45;;;;;;;5.00;4.50;;;;;;;17.65;69.33;96620.38;107458;1270;48385;-77
2022/06/26 03:47:16;;;;;;;5.90;5.20;;;;;;;17.67;69.70;96619.02;107528;1270;63370;-76
2022/06/26 03:49:52;;;;;;;6.50;4.60;;;;;;;17.77;69.93;96618.44;107600;1270;31673;-76
2022/06/26 03:52:24;;;;;;;7.20;4.30;;;;;;;17.95;69.97;96624.25;107599;1271;39175;-76
2022/06/26 03:54:56;;;;;;;4.70;4.20;;;;;;;18.04;69.81;96625.08;107570;1270;39778;-76
2022/06/26 03:57:28;;;;;;;6.10;4.40;;;;;;;18.02;69.79;96622.00;107616;1270;30460;-76
2022/06/26 03:59:59;;;;;;;5.80;4.80;;;;;;;18.05;69.84;96622.89;107603;1270;32459;-76
2022/06/26 04:02:30;;;;;;;8.30;4.90;;;;;;;18.16;69.80;96629.20;107508;1270;41547;-76
2022/06/26 04:05:01;;;;;;;6.70;4.60;;;;;;;18.30;69.25;96629.19;107482;1270;50211;-76
2022/06/26 04:07:32;;;;;;;7.30;4.40;;;;;;;18.42;69.18;96625.47;107551;1270;38131;-75
2022/06/26 04:10:04;;;;;;;6.00;4.50;;;;;;;18.55;68.74;96623.70;107599;1270;31095;-76
2022/06/26 04:12:35;;;;;;;6.50;4.40;;;;;;;18.67;68.21;96624.56;107415;1270;39682;-76
2022/06/26 04:15:09;;;;;;;7.80;4.90;;;;;;;18.81;68.01;96625.89;107402;1271;40394;-76
2022/06/26 04:17:40;;;;;;;5.40;4.70;;;;;;;18.89;67.73;96623.29;108898;1270;70899;-76
2022/06/26 04:20:12;;;;;;;7.90;5.20;;;;;;;19.03;67.74;96623.98;107603;1271;35897;-75
2022/06/26 04:22:44;;;;;;;5.70;4.80;;;;;;;19.16;67.78;96626.42;107653;1270;36900;-75
2022/06/26 04:25:15;;;;;;;7.10;5.40;;;;;;;19.26;67.96;96623.96;107602;1270;34146;-76
2022/06/26 04:27:46;;;;;;;6.30;4.20;;;;;;;19.34;68.18;96630.70;107439;1271;45067;-76
2022/06/26 04:30:18;;;;;;;7.20;4.40;;;;;;;19.44;67.97;96629.40;107568;1270;34751;-75
2022/06/26 04:32:49;;;;;;;6.00;4.50;;;;;;;19.57;67.86;96629.64;107465;1271;28838;-76
2022/06/26 04:35:20;;;;;;;4.80;4.30;;;;;;;19.70;67.27;96626.29;107563;1271;30800;-76
2022/06/26 04:37:52;;;;;;;4.90;4.20;;;;;;;19.84;66.74;96623.80;107593;1269;36333;-75
2022/06/26 04:40:24;;;;;;;6.50;4.30;;;;;;;19.96;65.78;96626.98;107524;1270;38084;-76
2022/06/26 04:42:56;;;;;;;6.30;4.50;;;;;;;20.01;65.17;96623.95;107535;1271;37927;-75
2022/06/26 04:45:27;;;;;;;4.70;4.10;;;;;;;20.12;64.89;96630.49;107451;1271;61683;-76
2022/06/26 04:47:58;;;;;;;8.80;4.20;;;;;;;20.22;64.22;96631.32;107600;1270;51510;-75
2022/06/26 04:50:29;;;;;;;8.00;4.50;;;;;;;20.30;63.84;96631.11;107484;1270;46924;-75
2022/06/26 04:53:00;;;;;;;7.10;4.20;;;;;;;20.38;63.66;96629.56;107552;1270;37965;-75
2022/06/26 04:55:32;;;;;;;6.00;4.40;;;;;;;20.48;63.52;96631.42;107540;1270;46978;-76
2022/06/26 04:58:03;;;;;;;5.70;4.50;;;;;;;20.63;63.23;96633.08;107595;1270;32818;-76
2022/06/26 05:00:35;;;;;;;5.70;4.30;;;;;;;20.75;62.81;96634.26;107471;1271;38206;-75
2022/06/26 05:03:06;;;;;;;6.50;4.20;;;;;;;20.89;62.74;96637.64;107488;1270;32480;-76
2022/06/26 05:05:37;;;;;;;4.50;4.00;;;;;;;21.05;62.61;96632.98;107503;1271;75936;-75
2022/06/26 05:08:08;;;;;;;4.90;4.50;;;;;;;21.17;62.05;96635.78;107498;1270;52959;-75
2022/06/26 05:10:39;;;;;;;6.30;4.20;;;;;;;21.36;62.35;96640.36;107600;1270;30818;-75
2022/06/26 05:13:10;;;;;;;7.10;4.10;;;;;;;21.60;62.06;96634.41;107645;1271;32434;-76
2022/06/26 05:15:41;;;;;;;6.30;4.30;;;;;;;21.83;61.75;96632.33;107631;1271;38948;-75
2022/06/26 05:18:13;;;;;;;7.10;4.40;;;;;;;22.08;61.15;96634.48;107614;1271;31657;-75
2022/06/26 05:20:44;;;;;;;4.90;4.30;;;;;;;22.41;60.56;96633.11;107621;1271;51587;-75
2022/06/26 05:23:16;;;;;;;7.30;4.40;;;;;;;22.83;60.04;96635.59;107573;1271;34250;-76
2022/06/26 05:25:47;;;;;;;5.30;3.60;;;;;;;23.80;59.70;96635.69;107581;1270;49316;-76
2022/06/26 05:28:19;;;;;;;4.40;3.80;;;;;;;26.12;58.47;96635.39;107564;1271;34279;-77
2022/06/26 05:30:50;;;;;;;3.60;3.30;;;;;;;28.76;54.17;96635.92;107593;1270;58905;-76
2022/06/26 05:33:21;;;;;;;5.60;3.90;;;;;;;30.71;50.20;96636.88;107526;1270;39872;-76
2022/06/26 05:35:52;;;;;;;4.10;3.60;;;;;;;32.52;46.80;96641.84;107595;1270;32218;-76
2022/06/26 05:38:24;;;;;;;4.00;3.30;;;;;;;33.69;43.65;96645.29;107575;1270;35593;-76
2022/06/26 05:40:55;;;;;;;5.10;3.40;;;;;;;34.94;41.74;96647.15;107527;1271;54144;-76
2022/06/26 05:43:27;;;;;;;4.30;3.20;;;;;;;36.34;39.72;96649.53;107454;1271;77449;-77
2022/06/26 05:45:58;;;;;;;5.50;3.00;;;;;;;37.75;37.91;96649.46;107569;1270;44771;-77
2022/06/26 05:48:30;;;;;;;4.80;3.20;;;;;;;39.00;35.53;96660.68;107578;1270;72592;-76
2022/06/26 05:51:01;;;;;;;3.80;3.20;;;;;;;39.80;33.04;96658.50;107554;1270;33621;-77
2022/06/26 05:53:32;;;;;;;4.10;3.10;;;;;;;39.64;31.77;96662.27;107525;1270;53701;-76
2022/06/26 05:56:04;;;;;;;4.80;3.20;;;;;;;40.03;31.29;96664.09;107596;1270;40104;-76
2022/06/26 05:58:35;;;;;;;5.50;3.80;;;;;;;40.26;29.89;96670.27;107545;1271;42693;-77
2022/06/26 06:01:07;;;;;;;3.70;3.00;;;;;;;40.26;29.33;96667.17;107575;1270;45773;-78
2022/06/26 06:03:38;;;;;;;5.20;3.20;;;;;;;40.48;27.98;96671.67;107549;1270;36832;-77
2022/06/26 06:06:10;;;;;;;4.20;3.20;;;;;;;40.07;28.21;96672.19;107609;1270;44815;-75
2022/06/26 06:08:41;;;;;;;3.20;2.90;;;;;;;40.81;28.30;96673.88;107669;1270;30876;-75
2022/06/26 06:11:13;;;;;;;4.20;3.60;;;;;;;40.97;26.58;96675.13;107613;1270;38664;-75
2022/06/26 06:13:44;;;;;;;3.80;3.40;;;;;;;39.77;26.49;96681.79;107551;1271;35279;-76
2022/06/26 06:16:15;;;;;;;4.40;3.00;;;;;;;40.19;27.24;96677.89;107575;1270;34572;-76
2022/06/26 06:18:46;;;;;;;4.10;3.20;;;;;;;40.21;26.72;96680.45;107586;1269;38355;-77
2022/06/26 06:21:17;;;;;;;3.40;3.10;;;;;;;40.19;25.54;96683.94;107582;1270;31013;-77
2022/06/26 06:23:49;;;;;;;3.80;3.00;;;;;;;39.13;26.35;96687.50;107559;1271;30599;-77
2022/06/26 06:26:21;;;;;;;3.60;2.80;;;;;;;39.76;27.28;96686.20;107595;1270;36605;-77
2022/06/26 06:28:52;;;;;;;3.50;2.90;;;;;;;40.55;26.23;96689.22;107533;1270;34059;-75
2022/06/26 06:31:23;;;;;;;4.10;3.20;;;;;;;40.87;26.23;96690.35;107550;1270;41050;-77
2022/06/26 06:33:54;;;;;;;4.10;3.40;;;;;;;40.62;24.65;96690.99;107571;1270;34278;-77
2022/06/26 06:36:25;;;;;;;3.70;3.30;;;;;;;39.42;24.90;96694.30;107549;1270;37024;-77
2022/06/26 06:38:56;;;;;;;3.60;3.20;;;;;;;38.67;26.54;96692.81;107591;1270;34228;-77
2022/06/26 06:41:28;;;;;;;4.00;3.00;;;;;;;38.81;26.24;96696.82;107563;1270;35178;-76
2022/06/26 06:43:59;;;;;;;3.20;3.00;;;;;;;38.22;26.66;96696.20;107536;1270;41469;-77
2022/06/26 06:46:31;;;;;;;4.30;3.10;;;;;;;38.16;26.85;96693.52;107586;1270;30563;-77
2022/06/26 06:49:02;;;;;;;4.20;3.30;;;;;;;38.30;26.97;96693.51;107606;1270;35316;-77
2022/06/26 06:51:34;;;;;;;3.70;3.30;;;;;;;38.85;26.52;96695.27;107595;1270;31818;-77
2022/06/26 06:54:06;;;;;;;3.80;3.40;;;;;;;38.73;26.21;96694.55;107514;1270;56475;-77
2022/06/26 06:56:37;;;;;;;4.40;3.20;;;;;;;38.96;26.59;96697.95;107559;1270;36949;-75
2022/06/26 06:59:10;;;;;;;4.80;3.40;;;;;;;40.30;26.33;96697.19;107565;1271;33754;-77
2022/06/26 07:01:41;;;;;;;3.20;3.00;;;;;;;41.83;24.98;96696.02;107645;1270;30855;-75
2022/06/26 07:04:13;;;;;;;3.50;3.10;;;;;;;42.72;24.42;96696.83;107581;1270;48547;-75
2022/06/26 07:06:45;;;;;;;3.70;3.00;;;;;;;42.65;22.39;96695.52;107625;1270;36388;-75
2022/06/26 07:09:18;;;;;;;5.20;3.10;;;;;;;41.86;23.31;96700.13;107578;1270;28743;-75
2022/06/26 07:11:50;;;;;;;4.60;3.10;;;;;;;41.73;24.21;96700.92;107595;1270;44066;-76
2022/06/26 07:14:22;;;;;;;5.00;2.80;;;;;;;43.47;23.72;96701.10;107553;1270;35320;-77
2022/06/26 07:16:54;;;;;;;4.30;2.90;;;;;;;45.02;22.81;96705.25;107533;1270;34374;-76
2022/06/26 07:19:26;;;;;;;4.00;3.00;;;;;;;46.29;21.99;96701.98;107531;1271;42724;-77
2022/06/26 07:21:59;;;;;;;4.80;3.10;;;;;;;47.27;20.56;96699.23;107577;1271;37210;-76
2022/06/26 07:24:31;;;;;;;4.70;3.10;;;;;;;45.54;19.80;96701.01;107596;1270;33117;-77
2022/06/26 07:27:05;;;;;;;3.30;3.00;;;;;;;45.72;20.88;96702.05;107580;1270;41607;-76
2022/06/26 07:29:36;;;;;;;5.50;3.10;;;;;;;46.32;20.19;96701.88;107525;1270;82491;-76
2022/06/26 07:32:09;;;;;;;4.00;2.70;;;;;;;47.12;20.53;96699.48;107417;1271;81692;-76
2022/06/26 07:34:41;;;;;;;3.30;2.90;;;;;;;48.31;18.93;96707.02;107619;1271;35864;-76
2022/06/26 07:37:12;;;;;;;3.30;3.00;;;;;;;46.37;17.78;96704.25;107545;1271;39673;-76
2022/06/26 07:39:43;;;;;;;4.40;3.00;;;;;;;45.13;19.94;96703.77;107687;1269;36812;-77
2022/06/26 07:42:15;;;;;;;4.30;3.20;;;;;;;45.79;19.37;96701.45;107562;1271;46577;-76
2022/06/26 07:44:46;;;;;;;3.50;3.20;;;;;;;46.59;19.97;96702.52;107525;1271;37808;-78
2022/06/26 07:47:17;;;;;;;3.60;3.30;;;;;;;47.41;19.14;96705.82;107565;1270;35518;-77
2022/06/26 07:49:52;;;;;;;4.50;2.90;;;;;;;48.06;19.03;96705.80;107446;1269;96170;-77
2022/06/26 07:52:23;;;;;;;3.50;3.00;;;;;;;48.87;18.01;96707.29;107220;1270;106159;-75
2022/06/26 07:54:55;;;;;;;3.90;3.10;;;;;;;48.83;18.08;96711.18;107329;1271;84333;-75
2022/06/26 07:57:27;;;;;;;5.10;3.30;;;;;;;49.55;17.90;96708.45;107491;1270;81390;-76
2022/06/26 07:59:59;;;;;;;4.50;3.40;;;;;;;50.44;17.19;96705.70;107500;1270;93831;-79
2022/06/26 08:02:33;;;;;;;3.90;3.50;;;;;;;50.99;16.83;96705.52;106465;1270;184425;-79
2022/06/26 08:05:05;;;;;;;4.10;3.80;;;;;;;51.01;15.90;96703.95;106456;1270;305613;-78
2022/06/26 08:07:37;;;;;;;3.80;3.50;;;;;;;49.73;16.01;96703.94;105735;1270;1476903;-77
2022/06/26 08:10:12;;;;;;;4.50;4.10;;;;;;;49.84;16.71;96702.33;106947;1270;163567;-77
2022/06/26 08:12:45;;;;;;;6.20;3.70;;;;;;;50.51;16.33;96699.76;107595;1270;77065;-76
2022/06/26 08:15:17;;;;;;;4.80;3.80;;;;;;;51.00;16.07;96702.95;107278;1270;126159;-80
2022/06/26 08:17:50;;;;;;;4.50;4.20;;;;;;;51.43;15.75;96703.52;105946;1272;1820037;-81
2022/06/26 08:20:22;;;;;;;4.80;4.40;;;;;;;50.87;14.72;96700.50;107308;1271;168134;-81
2022/06/26 08:22:55;;;;;;;4.70;4.30;;;;;;;48.43;16.00;96701.59;107277;1270;149283;-75
2022/06/26 08:25:26;;;;;;;4.50;3.80;;;;;;;48.88;16.72;96709.09;107492;1271;95299;-76
2022/06/26 08:27:59;;;;;;;5.20;4.80;;;;;;;49.72;16.30;96709.81;107436;1269;90751;-75
2022/06/26 08:30:32;;;;;;;5.10;4.20;;;;;;;49.92;15.70;96713.49;107396;1270;160641;-82
2022/06/26 08:33:04;;;;;;;4.90;4.60;;;;;;;49.15;16.00;96712.98;107588;1271;38877;-75
2022/06/26 08:35:37;;;;;;;4.70;4.30;;;;;;;49.06;16.15;96713.96;107482;1270;89436;-76
2022/06/26 08:38:09;;;;;;;5.60;4.60;;;;;;;49.26;15.72;96719.87;107445;1271;107336;-76
2022/06/26 08:40:40;;;;;;;4.20;4.00;;;;;;;49.24;16.08;96717.94;107499;1270;96299;-76
2022/06/26 08:43:14;;;;;;;4.60;4.20;;;;;;;48.40;15.66;96715.90;107447;1270;102674;-76
2022/06/26 08:45:47;;;;;;;4.50;4.20;;;;;;;47.35;17.23;96715.33;107461;1270;89647;-78
2022/06/26 08:48:25;;;;;;;5.00;3.90;;;;;;;47.98;17.14;96714.67;107414;1272;104343;-76
2022/06/26 08:50:57;;;;;;;3.50;2.90;;;;;;;47.82;16.56;96712.65;107437;1271;40906;-76
2022/06/26 08:53:29;;;;;;;3.60;3.10;;;;;;;44.68;17.35;96711.02;107474;1270;41579;-76
2022/06/26 08:56:02;;;;;;;4.80;3.30;;;;;;;41.03;20.22;96706.55;107419;1272;41878;-76
2022/06/26 08:58:33;;;;;;;4.30;2.90;;;;;;;39.23;22.04;96703.23;107483;1272;34553;-75
2022/06/26 09:01:07;;;;;;;3.60;3.10;;;;;;;37.92;23.20;96703.73;107422;1272;50365;-75
2022/06/26 09:03:39;;;;;;;3.90;3.50;;;;;;;36.61;24.50;96702.17;107454;1272;43564;-75
2022/06/26 09:06:11;;;;;;;5.50;3.50;;;;;;;34.63;26.45;96701.89;107441;1271;39232;-75
2022/06/26 09:08:49;;;;;;;4.80;3.50;;;;;;;33.94;28.29;96700.18;107467;1271;47405;-75
2022/06/26 09:11:21;;;;;;;4.10;3.60;;;;;;;34.18;28.77;96703.45;107504;1271;44361;-75
2022/06/26 09:13:53;;;;;;;4.70;3.80;;;;;;;34.30;29.00;96704.77;107479;1271;37256;-75
2022/06/26 09:16:33;;;;;;;4.70;3.30;;;;;;;33.41;29.45;96700.17;107211;1270;43797;-74
2022/06/26 09:19:09;;;;;;;;;;;;;;;32.58;30.05;96705.21;107671;1271;50538;-75
2022/06/26 09:21:41;;;;;;;7.00;4.20;;;;;;;32.42;31.43;96701.10;107485;1271;92485;-76
2022/06/26 09:24:14;;;;;;;4.60;3.80;;;;;;;32.82;31.74;96700.36;107420;1270;69634;-75
2022/06/26 09:27:01;;;;;;;4.00;3.60;;;;;;;33.14;31.60;96699.58;107350;1270;60622;-75
2022/06/26 09:29:33;;;;;;;7.60;3.80;;;;;;;33.43;31.48;96700.08;107374;1270;42607;-75
2022/06/26 09:32:12;;;;;;;6.30;3.80;;;;;;;32.89;30.42;96700.84;107488;1272;32989;-75
2022/06/26 09:34:49;;;;;;;5.80;3.50;;;;;;;32.58;30.65;96711.08;107454;1271;46927;-76
2022/06/26 09:37:22;;;;;;;4.90;3.50;;;;;;;32.32;30.39;96713.89;107373;1271;37084;-75
2022/06/26 09:40:05;;;;;;;4.20;3.30;;;;;;;32.12;31.33;96712.41;107468;1270;49595;-75
2022/06/26 09:42:37;;;;;;;5.90;3.30;;;;;;;31.90;31.25;96709.70;107550;1271;43702;-74
2022/06/26 09:45:11;;;;;;;6.80;3.90;;;;;;;31.30;31.65;96711.96;107590;1270;48788;-75
2022/06/26 09:47:45;;;;;;;3.90;3.50;;;;;;;31.40;32.57;96710.88;107593;1271;35837;-75
2022/06/26 09:50:19;;;;;;;4.70;3.30;;;;;;;31.19;32.02;96710.35;107587;1271;28539;-74
2022/06/26 09:52:50;;;;;;;5.00;3.70;;;;;;;31.09;33.19;96709.70;107495;1270;41846;-75
2022/06/26 09:55:22;;;;;;;4.50;3.20;;;;;;;31.42;33.25;96708.11;107585;1270;35538;-76
2022/06/26 09:57:54;;;;;;;5.50;3.80;;;;;;;31.23;32.53;96712.03;107526;1270;46478;-75
2022/06/26 10:00:26;;;;;;;6.10;3.60;;;;;;;31.10;32.73;96716.31;107330;1270;273504;-74
2022/06/26 10:08:42;;;;;;;4.40;3.50;;;;;;;30.95;32.49;96708.21;107689;1270;32525;-74
2022/06/26 10:11:15;;;;;;;6.80;3.60;;;;;;;30.66;32.87;96711.20;107409;1270;75589;-74
2022/06/26 10:13:47;;;;;;;5.30;3.30;;;;;;;30.86;33.19;96709.27;107521;1270;59322;-74
2022/06/26 10:16:35;;;;;;;6.90;3.40;;;;;;;31.20;32.56;96711.06;107496;1271;58902;-74
2022/06/26 10:19:20;;;;;;;4.60;3.50;;;;;;;31.55;32.65;96706.13;107542;1271;77166;-75
2022/06/26 10:21:54;;;;;;;7.30;3.90;;;;;;;31.50;31.81;96708.47;107393;1270;62792;-75
2022/06/26 10:24:27;;;;;;;5.60;3.40;;;;;;;31.52;32.62;96706.95;107538;1271;53619;-75
2022/06/26 10:27:03;;;;;;;6.70;4.00;;;;;;;31.48;31.78;96706.06;107411;1271;69287;-74
2022/06/26 10:29:42;;;;;;;4.30;3.30;;;;;;;31.25;32.27;96708.73;107693;1271;38902;-75
2022/06/26 10:32:25;;;;;;;5.30;3.40;;;;;;;31.06;31.43;96707.86;107298;1271;141364;-75
2022/06/26 10:35:01;;;;;;;4.90;3.40;;;;;;;30.33;31.71;96708.36;107581;1271;32837;-74
2022/06/26 10:37:43;;;;;;;4.80;3.70;;;;;;;29.87;33.43;96707.89;107611;1270;33391;-74
2022/06/26 10:43:15;;;;;;;4.60;3.50;;;;;;;30.72;34.73;96701.28;107484;1271;43837;-75
2022/06/26 10:45:48;;;;;;;5.70;3.90;;;;;;;31.16;34.19;96700.93;107562;1271;38835;-74
2022/06/26 10:48:23;;;;;;;5.40;3.70;;;;;;;31.41;33.47;96698.90;107551;1271;38386;-74
2022/06/26 10:51:02;;;;;;;5.80;3.50;;;;;;;31.54;32.82;96697.61;107554;1270;32604;-74
2022/06/26 10:53:37;;;;;;;5.40;3.70;;;;;;;31.68;32.76;96696.94;107579;1270;35501;-74
2022/06/26 10:56:10;;;;;;;4.70;3.50;;;;;;;31.67;32.60;96697.48;107579;1271;66053;-74
2022/06/26 10:58:45;;;;;;;5.70;3.80;;;;;;;31.62;31.94;96697.96;107671;1271;32895;-75
2022/06/26 11:01:17;;;;;;;4.20;3.40;;;;;;;30.99;30.30;96701.91;107585;1271;36009;-74
2022/06/26 11:03:51;;;;;;;5.20;3.80;;;;;;;30.50;32.05;96704.08;107597;1271;34288;-74
2022/06/26 11:06:28;;;;;;;5.80;3.60;;;;;;;30.73;32.87;96703.23;107454;1270;40559;-75
2022/06/26 11:09:01;;;;;;;7.30;3.80;;;;;;;31.00;32.36;96698.07;107557;1270;37912;-74
2022/06/26 11:11:35;;;;;;;4.90;3.20;;;;;;;31.14;32.02;96698.21;107533;1270;46241;-74
2022/06/26 11:14:09;;;;;;;4.60;3.30;;;;;;;30.86;30.59;96696.89;107530;1270;45329;-74
2022/06/26 11:16:44;;;;;;;5.30;3.30;;;;;;;30.65;32.23;96692.12;107450;1270;35746;-74
2022/06/26 11:19:28;;;;;;;4.20;3.50;;;;;;;30.94;32.75;96689.39;107593;1270;44300;-74
2022/06/26 11:22:09;;;;;;;4.10;3.70;;;;;;;31.17;32.65;96688.63;107647;1270;39316;-74
2022/06/26 11:24:50;;;;;;;7.80;4.50;;;;;;;31.30;31.85;96685.58;107622;1270;33261;-75
2022/06/26 11:27:25;;;;;;;5.20;3.60;;;;;;;31.35;31.27;96683.32;107603;1271;39668;-75
2022/06/26 11:29:58;;;;;;;5.20;3.50;;;;;;;31.34;31.39;96680.27;107485;1270;40845;-76
2022/06/26 11:32:30;;;;;;;4.60;3.50;;;;;;;31.43;31.61;96686.56;107561;1270;34363;-75
2022/06/26 11:35:02;;;;;;;4.40;2.90;;;;;;;31.50;31.46;96687.08;107483;1270;78198;-76
2022/06/26 11:37:38;;;;;;;3.70;3.10;;;;;;;31.45;30.70;96687.64;107439;1270;50573;-75
2022/06/26 11:40:17;;;;;;;4.90;3.20;;;;;;;31.36;31.43;96684.16;107525;1270;39624;-77
2022/06/26 11:42:55;;;;;;;3.70;3.30;;;;;;;31.47;31.45;96688.77;107517;1270;68360;-75
2022/06/26 11:45:31;;;;;;;5.30;3.40;;;;;;;31.57;31.31;96686.92;107547;1270;40831;-75
2022/06/26 11:48:06;;;;;;;6.30;3.50;;;;;;;31.34;30.71;96688.34;107429;1271;47558;-75
2022/06/26 11:50:40;;;;;;;5.10;3.40;;;;;;;30.94;30.46;96688.66;107558;1270;38268;-75
2022/06/26 11:53:18;;;;;;;4.40;3.40;;;;;;;30.41;30.57;96690.63;107476;1271;57473;-75
2022/06/26 11:55:53;;;;;;;4.20;3.40;;;;;;;30.35;32.46;96691.40;107383;1272;45005;-75
2022/06/26 11:58:26;;;;;;;6.60;3.10;;;;;;;30.55;31.37;96691.43;107586;1271;42389;-74
2022/06/26 12:01:13;;;;;;;4.50;3.80;;;;;;;30.43;31.73;96689.06;107575;1271;40418;-75